createdAt,value
2017-06-20T00:00:14.141Z,0
2017-06-20T00:01:16.023Z,0
2017-06-20T00:02:17.778Z,0
2017-06-20T00:03:19.516Z,0
2017-06-20T00:04:21.479Z,0
2017-06-20T00:05:23.814Z,0
2017-06-20T00:06:25.769Z,0
2017-06-20T00:07:29.764Z,0
2017-06-20T00:08:31.524Z,0
2017-06-20T00:09:35.241Z,0
2017-06-20T00:10:36.977Z,0
2017-06-20T00:11:43.338Z,0
2017-06-20T00:12:45.106Z,0
2017-06-20T00:13:52.716Z,0
2017-06-20T00:14:54.490Z,0
2017-06-20T00:15:56.369Z,0
2017-06-20T00:16:58.055Z,0
2017-06-20T00:17:59.854Z,0
2017-06-20T00:19:01.591Z,0
2017-06-20T00:20:03.390Z,0
2017-06-20T00:21:05.540Z,0
2017-06-20T00:22:08.354Z,0
2017-06-20T00:23:10.119Z,0
2017-06-20T00:24:11.872Z,0
2017-06-20T00:25:13.724Z,0
2017-06-20T00:26:16.595Z,0
2017-06-20T00:27:18.337Z,0
2017-06-20T00:28:20.231Z,0
2017-06-20T00:29:21.986Z,0
2017-06-20T00:30:29.240Z,0
2017-06-20T00:31:31.011Z,0
2017-06-20T00:32:32.749Z,0
2017-06-20T00:33:34.475Z,0
2017-06-20T00:34:40.806Z,0
2017-06-20T00:35:42.539Z,0
2017-06-20T00:36:44.404Z,0
2017-06-20T00:37:46.186Z,0
2017-06-20T00:38:50.054Z,0
2017-06-20T00:39:51.798Z,0
2017-06-20T00:40:55.593Z,0
2017-06-20T00:41:57.348Z,0
2017-06-20T00:43:00.525Z,0
2017-06-20T00:44:02.251Z,0
2017-06-20T00:45:04.425Z,0
2017-06-20T00:46:06.090Z,0
2017-06-20T00:47:09.360Z,0
2017-06-20T00:48:11.108Z,0
2017-06-20T00:49:13.951Z,0
2017-06-20T00:50:15.672Z,0
2017-06-20T00:51:17.479Z,0
2017-06-20T00:52:19.223Z,0
2017-06-20T00:53:22.004Z,0
2017-06-20T00:54:23.751Z,0
2017-06-20T00:55:25.584Z,0
2017-06-20T00:56:28.081Z,0
2017-06-20T00:57:31.931Z,0
2017-06-20T00:58:33.659Z,0
2017-06-20T00:59:36.463Z,0
2017-06-20T01:00:38.214Z,0
2017-06-20T01:01:40.916Z,0
2017-06-20T01:02:42.651Z,0
2017-06-20T01:03:44.480Z,0
2017-06-20T01:04:46.185Z,0
2017-06-20T01:05:47.981Z,0
2017-06-20T01:06:49.720Z,0
2017-06-20T01:07:52.507Z,0
2017-06-20T01:08:54.239Z,0
2017-06-20T01:10:06.753Z,0
2017-06-20T01:11:08.513Z,0
2017-06-20T01:12:12.193Z,0
2017-06-20T01:13:13.940Z,0
2017-06-20T01:14:15.805Z,0
2017-06-20T01:15:17.536Z,0
2017-06-20T01:16:20.392Z,0
2017-06-20T01:17:22.141Z,0
2017-06-20T01:18:23.890Z,0
2017-06-20T01:19:25.634Z,0
2017-06-20T01:20:28.409Z,0
2017-06-20T01:21:30.064Z,0
2017-06-20T01:22:32.829Z,0
2017-06-20T01:23:34.570Z,0
2017-06-20T01:24:38.348Z,0
2017-06-20T01:25:40.088Z,0
2017-06-20T01:26:43.933Z,0
2017-06-20T01:27:45.653Z,0
2017-06-20T01:28:47.531Z,0
2017-06-20T01:29:49.303Z,0
2017-06-20T01:30:51.033Z,0
2017-06-20T01:31:52.798Z,0
2017-06-20T01:32:54.610Z,0
2017-06-20T01:33:56.324Z,0
2017-06-20T01:34:59.115Z,0
2017-06-20T01:36:00.864Z,0
2017-06-20T01:37:07.243Z,0
2017-06-20T01:38:08.985Z,0
2017-06-20T01:39:10.818Z,0
2017-06-20T01:40:12.591Z,0
2017-06-20T01:41:15.470Z,0
2017-06-20T01:42:17.215Z,0
2017-06-20T01:43:25.805Z,0
2017-06-20T01:44:27.469Z,0
2017-06-20T01:45:29.311Z,0
2017-06-20T01:46:31.059Z,0
2017-06-20T01:47:33.791Z,0
2017-06-20T01:48:35.605Z,0
2017-06-20T01:49:37.444Z,0
2017-06-20T01:50:39.160Z,0
2017-06-20T01:51:42.961Z,0
2017-06-20T01:52:44.695Z,0
2017-06-20T01:53:51.358Z,0
2017-06-20T01:54:53.121Z,0
2017-06-20T01:55:56.910Z,0
2017-06-20T01:56:58.581Z,0
2017-06-20T01:58:02.369Z,0
2017-06-20T01:59:04.293Z,0
2017-06-20T02:00:06.155Z,0
2017-06-20T02:01:07.931Z,0
2017-06-20T02:02:09.667Z,0
2017-06-20T02:03:11.411Z,0
2017-06-20T02:04:13.172Z,0
2017-06-20T02:05:14.920Z,0
2017-06-20T02:06:22.373Z,0
2017-06-20T02:07:24.053Z,0
2017-06-20T02:08:25.879Z,0
2017-06-20T02:09:27.641Z,0
2017-06-20T02:10:29.391Z,0
2017-06-20T02:11:31.150Z,0
2017-06-20T02:12:32.973Z,0
2017-06-20T02:13:34.634Z,0
2017-06-20T02:14:37.477Z,0
2017-06-20T02:15:39.234Z,0
2017-06-20T02:16:45.882Z,0
2017-06-20T02:17:47.627Z,0
2017-06-20T02:18:49.484Z,0
2017-06-20T02:19:51.261Z,0
2017-06-20T02:20:54.102Z,0
2017-06-20T02:21:56.160Z,4
2017-06-20T02:24:07.820Z,4
2017-06-20T02:25:10.628Z,4
2017-06-20T02:26:12.396Z,4
2017-06-20T02:27:14.218Z,4
2017-06-20T02:28:16.443Z,0
2017-06-20T02:29:19.294Z,4
2017-06-20T02:30:21.060Z,4
2017-06-20T02:31:24.918Z,4
2017-06-20T02:32:26.666Z,4
2017-06-20T02:33:29.513Z,8
2017-06-20T02:34:31.304Z,4
2017-06-20T02:35:43.971Z,8
2017-06-20T02:36:45.768Z,8
2017-06-20T02:37:48.591Z,8
2017-06-20T02:38:50.377Z,12
2017-06-20T02:39:59.055Z,12
2017-06-20T02:41:00.808Z,12
2017-06-20T02:42:04.959Z,12
2017-06-20T02:43:06.816Z,16
2017-06-20T02:44:13.575Z,20
2017-06-20T02:45:15.440Z,24
2017-06-20T02:46:17.579Z,24
2017-06-20T02:47:19.694Z,28
2017-06-20T02:48:22.353Z,32
2017-06-20T02:49:24.164Z,36
2017-06-20T02:50:25.948Z,40
2017-06-20T02:51:27.697Z,40
2017-06-20T02:52:29.538Z,44
2017-06-20T02:53:31.370Z,48
2017-06-20T02:54:34.106Z,52
2017-06-20T02:55:35.866Z,56
2017-06-20T02:56:39.663Z,60
2017-06-20T02:57:41.400Z,68
2017-06-20T02:58:45.383Z,68
2017-06-20T02:59:47.151Z,76
2017-06-20T03:00:49.000Z,80
2017-06-20T03:01:50.786Z,92
2017-06-20T03:02:52.555Z,96
2017-06-20T03:03:54.333Z,104
2017-06-20T03:04:56.588Z,112
2017-06-20T03:05:58.308Z,120
2017-06-20T03:07:00.199Z,128
2017-06-20T03:08:01.987Z,136
2017-06-20T03:09:03.697Z,144
2017-06-20T03:10:05.863Z,156
2017-06-20T03:11:07.733Z,168
2017-06-20T03:12:09.475Z,180
2017-06-20T03:13:11.343Z,196
2017-06-20T03:14:13.109Z,208
2017-06-20T03:15:14.979Z,232
2017-06-20T03:16:16.753Z,248
2017-06-20T03:17:20.571Z,272
2017-06-20T03:18:22.671Z,296
2017-06-20T03:19:37.889Z,324
2017-06-20T03:20:39.664Z,352
2017-06-20T03:21:58.090Z,384
2017-06-20T03:23:00.266Z,420
2017-06-20T03:53:32.332Z,1812
2017-06-20T03:54:34.071Z,1876
2017-06-20T03:55:35.738Z,1940
2017-06-20T03:56:37.486Z,2000
2017-06-20T03:57:39.222Z,2064
2017-06-20T03:58:41.149Z,2136
2017-06-20T03:59:42.826Z,2204
2017-06-20T04:00:44.603Z,2276
2017-06-20T04:01:46.379Z,2348
2017-06-20T04:02:48.267Z,2420
2017-06-20T04:03:50.071Z,2496
2017-06-20T04:04:51.958Z,2564
2017-06-20T04:05:53.791Z,2636
2017-06-20T04:06:55.600Z,2700
2017-06-20T04:07:57.387Z,2756
2017-06-20T04:08:59.201Z,2816
2017-06-20T04:10:01.011Z,2884
2017-06-20T04:11:02.862Z,2956
2017-06-20T04:12:04.555Z,3040
2017-06-20T04:13:06.320Z,3116
2017-06-20T04:14:08.164Z,3200
2017-06-20T04:15:09.929Z,3276
2017-06-20T04:16:11.736Z,3344
2017-06-20T04:17:13.474Z,3388
2017-06-20T04:18:15.171Z,3444
2017-06-20T04:19:17.106Z,3508
2017-06-20T04:20:18.850Z,3580
2017-06-20T04:21:20.724Z,3676
2017-06-20T04:22:22.572Z,3760
2017-06-20T04:23:24.412Z,3828
2017-06-20T04:24:26.147Z,3896
2017-06-20T04:25:27.949Z,3968
2017-06-20T04:26:29.715Z,4072
2017-06-20T04:27:31.486Z,4152
2017-06-20T04:28:33.467Z,4224
2017-06-20T04:29:35.389Z,4284
2017-06-20T04:30:37.138Z,4332
2017-06-20T04:31:39.475Z,4396
2017-06-20T04:32:41.220Z,4464
2017-06-20T04:33:42.894Z,4600
2017-06-20T04:34:44.595Z,4716
2017-06-20T04:35:46.363Z,4848
2017-06-20T04:36:48.159Z,5008
2017-06-20T04:37:49.938Z,5148
2017-06-20T04:38:51.692Z,5228
2017-06-20T04:39:53.477Z,5336
2017-06-20T04:40:55.250Z,5444
2017-06-20T04:41:57.112Z,5652
2017-06-20T04:42:59.321Z,5852
2017-06-20T04:44:01.063Z,5928
2017-06-20T04:45:02.836Z,6268
2017-06-20T04:46:04.627Z,6380
2017-06-20T04:47:06.338Z,6548
2017-06-20T04:48:08.045Z,6688
2017-06-20T04:49:09.830Z,6820
2017-06-20T04:50:11.621Z,6988
2017-06-20T04:51:13.413Z,7320
2017-06-20T04:52:15.173Z,8748
2017-06-20T04:53:17.114Z,10508
2017-06-20T04:54:18.948Z,12488
2017-06-20T04:55:20.769Z,13820
2017-06-20T04:56:22.535Z,14140
2017-06-20T04:57:24.386Z,12684
2017-06-20T04:58:26.182Z,12436
2017-06-20T04:59:27.965Z,14664
2017-06-20T05:00:29.750Z,16160
2017-06-20T05:01:31.483Z,15152
2017-06-20T05:02:33.308Z,14216
2017-06-20T05:03:35.184Z,13020
2017-06-20T05:04:36.943Z,12836
2017-06-20T05:05:38.709Z,13432
2017-06-20T05:06:40.474Z,11936
2017-06-20T05:07:42.231Z,10456
2017-06-20T05:08:44.049Z,10608
2017-06-20T05:09:45.751Z,11556
2017-06-20T05:10:47.613Z,12360
2017-06-20T05:11:49.339Z,13744
2017-06-20T05:12:51.080Z,11712
2017-06-20T05:13:52.853Z,10572
2017-06-20T05:14:54.611Z,8904
2017-06-20T05:15:56.398Z,8320
2017-06-20T05:16:58.216Z,8228
2017-06-20T05:17:59.975Z,8716
2017-06-20T05:19:01.652Z,9312
2017-06-20T05:20:03.442Z,9580
2017-06-20T05:21:05.189Z,9156
2017-06-20T05:22:06.922Z,8452
2017-06-20T05:23:08.689Z,8184
2017-06-20T05:24:10.393Z,8040
2017-06-20T05:25:12.182Z,8064
2017-06-20T05:26:13.914Z,8172
2017-06-20T05:27:16.026Z,8248
2017-06-20T05:28:17.806Z,8528
2017-06-20T05:29:19.553Z,8428
2017-06-20T05:30:21.339Z,8452
2017-06-20T05:31:23.221Z,8800
2017-06-20T05:32:24.962Z,8960
2017-06-20T05:33:26.625Z,9008
2017-06-20T05:34:28.432Z,9192
2017-06-20T05:35:30.184Z,9148
2017-06-20T05:36:31.914Z,8860
2017-06-20T05:37:33.677Z,8412
2017-06-20T05:38:35.413Z,8316
2017-06-20T05:39:37.299Z,8216
2017-06-20T05:40:39.059Z,8240
2017-06-20T05:41:40.848Z,8196
2017-06-20T05:42:42.529Z,8092
2017-06-20T05:43:44.312Z,7980
2017-06-20T05:44:46.076Z,7880
2017-06-20T05:45:47.758Z,7940
2017-06-20T05:46:49.508Z,8048
2017-06-20T05:47:51.278Z,8152
2017-06-20T05:48:53.017Z,8216
2017-06-20T05:49:54.833Z,8232
2017-06-20T05:50:56.602Z,8148
2017-06-20T05:51:58.367Z,8036
2017-06-20T05:53:00.111Z,8336
2017-06-20T05:54:01.782Z,8464
2017-06-20T05:55:03.627Z,8576
2017-06-20T05:56:05.384Z,8700
2017-06-20T05:57:07.210Z,8784
2017-06-20T05:58:09.609Z,9004
2017-06-20T05:59:11.225Z,9668
2017-06-20T06:00:13.310Z,9444
2017-06-20T06:01:15.071Z,8548
2017-06-20T06:02:16.855Z,8948
2017-06-20T06:03:18.527Z,8952
2017-06-20T06:04:20.352Z,8964
2017-06-20T06:05:22.092Z,9004
2017-06-20T06:06:23.869Z,9008
2017-06-20T06:07:25.646Z,8968
2017-06-20T06:08:27.443Z,8736
2017-06-20T06:09:29.544Z,8488
2017-06-20T06:10:31.353Z,8328
2017-06-20T06:11:33.150Z,8136
2017-06-20T06:12:34.955Z,8308
2017-06-20T06:13:36.795Z,8408
2017-06-20T06:14:38.544Z,8344
2017-06-20T06:15:40.277Z,8364
2017-06-20T06:16:42.015Z,8408
2017-06-20T06:17:43.753Z,8520
2017-06-20T06:18:45.548Z,8692
2017-06-20T06:19:47.287Z,8704
2017-06-20T06:20:50.058Z,8624
2017-06-20T06:21:51.823Z,8784
2017-06-20T06:22:53.657Z,8740
2017-06-20T06:23:55.387Z,8544
2017-06-20T06:24:57.176Z,8296
2017-06-20T06:25:58.912Z,8460
2017-06-20T06:27:00.756Z,9000
2017-06-20T06:28:02.639Z,8552
2017-06-20T06:29:04.406Z,8676
2017-06-20T06:30:06.156Z,9128
2017-06-20T06:31:07.979Z,9100
2017-06-20T06:32:09.698Z,9136
2017-06-20T06:33:11.707Z,9192
2017-06-20T06:34:13.495Z,9312
2017-06-20T06:35:15.627Z,9176
2017-06-20T06:36:17.417Z,9136
2017-06-20T06:37:19.340Z,9052
2017-06-20T06:38:21.364Z,8948
2017-06-20T06:39:23.110Z,9016
2017-06-20T06:40:24.899Z,9068
2017-06-20T06:41:26.664Z,9024
2017-06-20T06:42:28.355Z,9100
2017-06-20T06:43:30.155Z,9088
2017-06-20T06:44:31.991Z,9056
2017-06-20T06:45:33.754Z,9028
2017-06-20T06:46:35.582Z,8736
2017-06-20T06:47:37.378Z,8868
2017-06-20T06:48:39.175Z,8952
2017-06-20T06:49:40.992Z,8964
2017-06-20T06:50:42.775Z,8912
2017-06-20T06:51:44.532Z,8872
2017-06-20T06:52:46.302Z,8852
2017-06-20T06:53:48.109Z,8796
2017-06-20T06:54:50.028Z,8672
2017-06-20T06:55:51.806Z,8620
2017-06-20T06:56:53.552Z,8712
2017-06-20T06:57:55.300Z,8744
2017-06-20T06:58:57.214Z,8788
2017-06-20T06:59:58.944Z,8820
2017-06-20T07:01:00.786Z,8848
2017-06-20T07:02:02.473Z,8816
2017-06-20T07:03:04.391Z,8688
2017-06-20T07:04:06.100Z,8708
2017-06-20T07:05:07.865Z,8708
2017-06-20T07:06:09.650Z,8808
2017-06-20T07:07:11.506Z,8980
2017-06-20T07:08:13.544Z,8952
2017-06-20T07:09:15.360Z,9044
2017-06-20T07:10:17.116Z,9096
2017-06-20T07:11:18.957Z,9176
2017-06-20T07:12:21.023Z,9120
2017-06-20T07:13:22.893Z,8972
2017-06-20T07:14:24.664Z,8816
2017-06-20T07:15:26.407Z,8588
2017-06-20T07:16:28.274Z,8660
2017-06-20T07:17:30.073Z,8656
2017-06-20T07:18:31.891Z,8532
2017-06-20T07:19:33.681Z,8584
2017-06-20T07:20:35.556Z,8560
2017-06-20T07:21:37.257Z,8460
2017-06-20T07:22:39.229Z,8576
2017-06-20T07:23:41.032Z,8340
2017-06-20T07:24:42.754Z,8384
2017-06-20T07:25:44.571Z,8488
2017-06-20T07:26:46.342Z,8560
2017-06-20T07:27:48.177Z,8388
2017-06-20T07:28:49.962Z,8484
2017-06-20T07:29:51.775Z,8624
2017-06-20T07:30:53.535Z,8608
2017-06-20T07:31:55.269Z,8592
2017-06-20T07:32:57.034Z,8612
2017-06-20T07:33:58.738Z,8736
2017-06-20T07:35:00.464Z,8732
2017-06-20T07:36:02.131Z,8756
2017-06-20T07:37:03.799Z,8752
2017-06-20T07:38:05.547Z,8688
2017-06-20T07:39:07.294Z,8644
2017-06-20T07:40:09.057Z,8464
2017-06-20T07:41:10.728Z,8388
2017-06-20T07:42:12.404Z,8104
2017-06-20T07:43:14.152Z,8044
2017-06-20T07:44:15.896Z,7984
2017-06-20T07:45:17.667Z,8156
2017-06-20T07:46:19.411Z,8372
2017-06-20T07:47:21.147Z,8452
2017-06-20T07:48:22.894Z,8388
2017-06-20T07:49:24.660Z,8120
2017-06-20T07:50:26.330Z,8108
2017-06-20T07:51:28.091Z,8044
2017-06-20T07:52:29.842Z,8172
2017-06-20T07:53:31.588Z,8032
2017-06-20T07:54:33.438Z,7980
2017-06-20T07:55:35.372Z,7932
2017-06-20T07:56:37.046Z,7932
2017-06-20T07:57:38.927Z,8036
2017-06-20T07:58:40.676Z,8076
2017-06-20T07:59:42.466Z,8172
2017-06-20T08:00:44.229Z,8152
2017-06-20T08:01:46.000Z,8052
2017-06-20T08:02:47.709Z,7928
2017-06-20T08:03:49.659Z,7772
2017-06-20T08:04:51.517Z,7764
2017-06-20T08:05:53.259Z,7736
2017-06-20T08:06:55.489Z,7756
2017-06-20T08:07:57.335Z,7860
2017-06-20T08:09:00.209Z,7780
2017-06-20T08:10:01.943Z,7816
2017-06-20T08:11:04.632Z,7604
2017-06-20T08:12:06.377Z,7716
2017-06-20T08:13:08.385Z,7676
2017-06-20T08:14:10.060Z,7764
2017-06-20T08:15:11.923Z,7844
2017-06-20T08:16:13.684Z,7796
2017-06-20T08:17:15.581Z,7716
2017-06-20T08:18:17.368Z,7720
2017-06-20T08:19:19.190Z,7612
2017-06-20T08:20:21.070Z,7588
2017-06-20T08:21:22.753Z,7612
2017-06-20T08:22:24.540Z,7556
2017-06-20T08:23:26.322Z,7588
2017-06-20T08:24:28.080Z,7492
2017-06-20T08:25:29.812Z,7408
2017-06-20T08:26:31.660Z,7396
2017-06-20T08:27:33.427Z,7436
2017-06-20T08:28:36.271Z,7504
2017-06-20T08:29:38.071Z,7512
2017-06-20T08:30:39.743Z,7456
2017-06-20T08:31:41.544Z,7416
2017-06-20T08:32:43.293Z,7412
2017-06-20T08:33:45.184Z,7396
2017-06-20T08:34:46.991Z,7336
2017-06-20T08:35:48.907Z,7340
2017-06-20T08:36:50.694Z,7344
2017-06-20T08:37:53.543Z,7256
2017-06-20T08:38:55.317Z,7112
2017-06-20T08:39:57.127Z,7100
2017-06-20T08:40:58.865Z,7156
2017-06-20T08:42:00.741Z,7188
2017-06-20T08:43:02.532Z,7192
2017-06-20T08:44:04.276Z,7128
2017-06-20T08:45:06.064Z,7116
2017-06-20T08:46:07.767Z,7072
2017-06-20T08:47:09.497Z,7136
2017-06-20T08:48:11.159Z,7076
2017-06-20T08:49:12.990Z,7084
2017-06-20T08:50:14.758Z,7080
2017-06-20T08:51:16.505Z,7080
2017-06-20T08:52:18.265Z,7104
2017-06-20T08:53:20.006Z,7060
2017-06-20T08:54:21.841Z,6904
2017-06-20T08:55:23.549Z,6940
2017-06-20T08:56:25.329Z,7052
2017-06-20T08:57:27.140Z,7024
2017-06-20T08:58:28.810Z,7068
2017-06-20T08:59:31.698Z,7088
2017-06-20T09:00:33.463Z,7156
2017-06-20T09:01:35.282Z,7044
2017-06-20T09:02:37.055Z,7004
2017-06-20T09:03:39.354Z,6952
2017-06-20T09:04:41.152Z,7052
2017-06-20T09:05:42.929Z,7028
2017-06-20T09:06:44.681Z,7024
2017-06-20T09:07:46.431Z,6944
2017-06-20T09:08:48.215Z,6920
2017-06-20T09:09:49.964Z,6864
2017-06-20T09:10:51.727Z,6852
2017-06-20T09:11:53.480Z,6844
2017-06-20T09:12:55.329Z,6808
2017-06-20T09:13:57.178Z,6876
2017-06-20T09:14:58.961Z,6828
2017-06-20T09:16:00.803Z,6928
2017-06-20T09:17:02.548Z,6888
2017-06-20T09:18:04.244Z,6792
2017-06-20T09:19:05.984Z,6736
2017-06-20T09:20:07.665Z,6752
2017-06-20T09:21:09.425Z,6768
2017-06-20T09:22:11.240Z,6800
2017-06-20T09:23:13.125Z,6848
2017-06-20T09:24:14.913Z,6992
2017-06-20T09:25:16.617Z,6988
2017-06-20T09:26:18.400Z,6916
2017-06-20T09:27:20.150Z,6872
2017-06-20T09:28:21.882Z,6892
2017-06-20T09:29:23.648Z,6896
2017-06-20T09:30:25.358Z,6896
2017-06-20T09:31:27.112Z,6844
2017-06-20T09:32:28.886Z,6928
2017-06-20T09:33:30.593Z,6916
2017-06-20T09:34:32.351Z,6872
2017-06-20T09:35:34.173Z,6896
2017-06-20T09:36:35.957Z,6880
2017-06-20T09:37:37.787Z,6888
2017-06-20T09:38:39.628Z,6892
2017-06-20T09:39:41.376Z,6856
2017-06-20T09:40:43.058Z,6924
2017-06-20T09:41:44.814Z,6948
2017-06-20T09:42:47.608Z,6932
2017-06-20T09:43:49.377Z,7064
2017-06-20T09:44:51.241Z,6944
2017-06-20T09:45:53.163Z,6936
2017-06-20T09:46:54.921Z,6868
2017-06-20T09:47:56.691Z,6908
2017-06-20T09:48:58.399Z,6944
2017-06-20T09:50:00.268Z,6984
2017-06-20T09:51:02.054Z,6972
2017-06-20T09:52:03.833Z,7016
2017-06-20T09:53:05.537Z,7036
2017-06-20T09:54:15.072Z,7072
2017-06-20T09:55:16.825Z,7056
2017-06-20T09:56:19.093Z,7104
2017-06-20T09:57:20.836Z,7076
2017-06-20T09:58:22.686Z,7076
2017-06-20T09:59:24.393Z,7060
2017-06-20T10:00:26.161Z,7076
2017-06-20T10:01:30.016Z,7184
2017-06-20T10:02:31.804Z,7152
2017-06-20T10:03:35.649Z,7124
2017-06-20T10:04:37.450Z,7192
2017-06-20T10:05:46.118Z,7248
2017-06-20T10:06:47.910Z,7400
2017-06-20T11:00:13.605Z,8028
2017-06-20T11:01:15.549Z,8196
2017-06-20T11:02:17.723Z,8336
2017-06-20T11:03:19.511Z,8484
2017-06-20T11:04:21.409Z,8688
2017-06-20T11:05:23.353Z,8700
2017-06-20T11:06:25.238Z,8780
2017-06-20T11:07:26.970Z,8700
2017-06-20T11:08:28.773Z,8596
2017-06-20T11:09:30.530Z,8704
2017-06-20T11:10:32.291Z,8732
2017-06-20T11:11:34.088Z,8932
2017-06-20T11:12:35.960Z,9036
2017-06-20T11:13:37.776Z,9056
2017-06-20T11:14:39.555Z,9000
2017-06-20T11:15:41.296Z,9048
2017-06-20T11:16:43.127Z,9056
2017-06-20T11:17:44.876Z,9080
2017-06-20T11:18:46.787Z,9272
2017-06-20T11:19:48.462Z,9192
2017-06-20T11:20:55.119Z,9236
2017-06-20T11:21:56.859Z,9280
2017-06-20T11:22:58.685Z,9276
2017-06-20T11:24:00.509Z,9268
2017-06-20T11:25:02.249Z,9224
2017-06-20T11:26:03.962Z,9492
2017-06-20T11:27:05.830Z,9472
2017-06-20T11:28:07.652Z,9548
2017-06-20T11:29:09.370Z,9344
2017-06-20T11:30:11.144Z,9356
2017-06-20T11:31:13.014Z,9384
2017-06-20T11:32:14.684Z,9408
2017-06-20T11:33:16.427Z,9328
2017-06-20T11:34:18.281Z,9260
2017-06-20T11:35:19.955Z,8508
2017-06-20T11:36:21.707Z,8256
2017-06-20T11:37:23.488Z,8224
2017-06-20T11:38:25.248Z,8836
2017-06-20T11:39:26.994Z,9524
2017-06-20T11:40:28.787Z,9804
2017-06-20T11:41:30.941Z,9296
2017-06-20T11:42:32.725Z,8864
2017-06-20T11:43:34.513Z,8632
2017-06-20T11:44:36.300Z,8508
2017-06-20T11:45:38.083Z,8616
2017-06-20T11:46:39.893Z,8588
2017-06-20T11:47:41.685Z,8612
2017-06-20T11:48:43.518Z,8572
2017-06-20T11:49:45.355Z,8488
2017-06-20T11:50:47.115Z,8136
2017-06-20T11:51:48.849Z,8304
2017-06-20T11:52:50.684Z,8384
2017-06-20T11:53:52.427Z,8756
2017-06-20T11:54:54.199Z,8720
2017-06-20T11:55:56.070Z,8952
2017-06-20T11:56:57.965Z,9208
2017-06-20T11:57:59.785Z,9468
2017-06-20T11:59:01.532Z,9784
2017-06-20T12:00:03.238Z,10124
2017-06-20T12:01:05.053Z,10500
2017-06-20T12:02:06.846Z,10844
2017-06-20T12:03:08.663Z,11348
2017-06-20T12:04:10.838Z,11744
2017-06-20T12:05:12.620Z,11696
2017-06-20T12:06:14.313Z,10996
2017-06-20T12:07:16.054Z,10092
2017-06-20T12:08:17.872Z,10096
2017-06-20T12:09:19.621Z,8352
2017-06-20T12:10:21.299Z,8524
2017-06-20T12:11:23.088Z,9024
2017-06-20T12:12:24.845Z,8220
2017-06-20T12:13:26.640Z,7540
2017-06-20T12:14:28.306Z,7416
2017-06-20T12:15:30.046Z,7336
2017-06-20T12:16:32.330Z,7364
2017-06-20T12:17:34.060Z,7552
2017-06-20T12:18:35.843Z,7912
2017-06-20T12:19:37.521Z,9436
2017-06-20T12:20:39.275Z,8384
2017-06-20T12:21:41.073Z,9112
2017-06-20T12:22:42.867Z,10160
2017-06-20T12:23:44.626Z,10240
2017-06-20T12:24:46.323Z,10204
2017-06-20T12:25:48.107Z,10152
2017-06-20T12:26:49.877Z,10228
2017-06-20T12:27:51.654Z,10224
2017-06-20T12:28:53.912Z,10088
2017-06-20T12:29:55.655Z,9856
2017-06-20T12:30:57.423Z,9384
2017-06-20T12:31:59.093Z,9080
2017-06-20T12:33:01.338Z,9300
2017-06-20T12:34:03.187Z,10504
2017-06-20T12:35:04.921Z,10820
2017-06-20T12:36:06.611Z,10952
2017-06-20T12:37:08.289Z,10856
2017-06-20T12:38:10.073Z,11128
2017-06-20T12:39:11.809Z,10928
2017-06-20T12:40:13.666Z,10900
2017-06-20T12:41:15.568Z,10688
2017-06-20T12:42:17.320Z,10404
2017-06-20T12:43:19.053Z,10372
2017-06-20T12:44:20.859Z,10324
2017-06-20T12:45:22.564Z,10320
2017-06-20T12:46:24.403Z,10064
2017-06-20T12:47:26.247Z,9456
2017-06-20T12:48:27.970Z,9708
2017-06-20T12:49:29.764Z,9768
2017-06-20T12:50:31.544Z,9628
2017-06-20T12:51:33.260Z,9644
2017-06-20T12:52:35.065Z,9556
2017-06-20T12:53:36.848Z,9980
2017-06-20T12:54:38.807Z,9252
2017-06-20T12:55:40.549Z,9800
2017-06-20T12:56:42.384Z,10428
2017-06-20T12:57:44.164Z,10804
2017-06-20T12:58:46.352Z,11056
2017-06-20T12:59:48.117Z,11060
2017-06-20T13:00:50.038Z,10900
2017-06-20T13:01:51.787Z,10752
2017-06-20T13:02:53.580Z,10388
2017-06-20T13:03:55.289Z,9996
2017-06-20T13:04:57.134Z,9604
2017-06-20T13:05:58.911Z,9408
2017-06-20T13:07:00.667Z,9320
2017-06-20T13:08:03.423Z,9264
2017-06-20T13:09:05.184Z,8932
2017-06-20T13:10:07.900Z,8928
2017-06-20T13:11:11.229Z,8896
2017-06-20T13:12:12.967Z,8904
2017-06-20T13:13:14.806Z,9548
2017-06-20T13:14:16.558Z,9220
2017-06-20T13:15:18.397Z,9984
2017-06-20T13:16:20.145Z,10072
2017-06-20T13:17:22.009Z,10760
2017-06-20T13:18:23.782Z,11336
2017-06-20T13:19:25.666Z,11440
2017-06-20T13:20:27.381Z,11324
2017-06-20T13:21:29.229Z,11276
2017-06-20T13:22:30.897Z,11372
2017-06-20T13:23:33.248Z,11292
2017-06-20T13:24:34.792Z,11220
2017-06-20T13:25:36.792Z,10712
2017-06-20T13:26:38.593Z,10668
2017-06-20T13:27:40.279Z,10332
2017-06-20T13:28:42.049Z,10320
2017-06-20T13:29:43.839Z,10020
2017-06-20T13:30:45.505Z,9532
2017-06-20T13:31:48.476Z,9724
2017-06-20T13:32:50.357Z,9572
2017-06-20T13:33:52.109Z,9740
2017-06-20T13:34:54.002Z,9496
2017-06-20T13:35:55.761Z,9296
2017-06-20T13:36:57.589Z,9476
2017-06-20T13:37:59.324Z,9620
2017-06-20T13:39:01.290Z,9504
2017-06-20T13:40:03.088Z,9760
2017-06-20T13:41:04.988Z,9968
2017-06-20T13:42:06.752Z,9972
2017-06-20T13:43:09.461Z,9940
2017-06-20T13:44:11.244Z,9452
2017-06-20T13:45:13.085Z,9728
2017-06-20T13:46:14.873Z,9692
2017-06-20T13:47:16.922Z,9668
2017-06-20T13:48:18.514Z,9116
2017-06-20T13:49:21.888Z,9204
2017-06-20T13:50:23.457Z,9092
2017-06-20T13:51:25.575Z,8836
2017-06-20T13:52:27.333Z,8712
2017-06-20T13:53:29.055Z,8560
2017-06-20T13:54:30.814Z,8364
2017-06-20T13:55:32.624Z,7940
2017-06-20T13:56:34.463Z,7756
2017-06-20T13:57:36.283Z,7976
2017-06-20T13:58:39.346Z,8116
2017-06-20T13:59:41.137Z,8352
2017-06-20T14:00:42.875Z,8200
2017-06-20T14:01:44.686Z,8016
2017-06-20T14:02:46.417Z,8472
2017-06-20T14:03:48.296Z,8512
2017-06-20T14:04:50.068Z,8588
2017-06-20T14:05:51.862Z,8676
2017-06-20T14:06:53.667Z,8804
2017-06-20T14:07:55.516Z,8872
2017-06-20T14:08:57.331Z,8704
2017-06-20T14:09:59.081Z,8688
2017-06-20T14:11:00.860Z,8824
2017-06-20T14:12:02.650Z,8936
2017-06-20T14:13:04.400Z,9060
2017-06-20T14:14:06.163Z,9096
2017-06-20T14:15:07.990Z,9584
2017-06-20T14:16:09.826Z,9524
2017-06-20T14:17:11.855Z,9404
2017-06-20T14:18:13.669Z,9516
2017-06-20T14:19:15.495Z,9668
2017-06-20T14:20:17.277Z,9600
2017-06-20T14:21:19.031Z,9620
2017-06-20T14:22:20.892Z,9544
2017-06-20T14:23:22.706Z,9584
2017-06-20T14:24:25.599Z,8864
2017-06-20T14:25:27.327Z,7696
2017-06-20T14:26:29.145Z,7964
2017-06-20T14:27:30.952Z,7584
2017-06-20T14:28:32.809Z,7264
2017-06-20T14:29:34.732Z,7396
2017-06-20T14:30:36.460Z,7656
2017-06-20T14:31:39.302Z,8028
2017-06-20T14:32:41.050Z,8644
2017-06-20T14:33:42.840Z,9472
2017-06-20T14:34:44.530Z,10272
2017-06-20T14:35:46.294Z,10780
2017-06-20T14:36:48.100Z,11212
2017-06-20T14:37:49.807Z,11336
2017-06-20T14:38:51.574Z,11144
2017-06-20T14:39:53.476Z,10492
2017-06-20T14:40:55.191Z,10092
2017-06-20T14:41:58.028Z,9676
2017-06-20T14:42:59.793Z,9444
2017-06-20T14:44:01.582Z,9332
2017-06-20T14:45:03.328Z,9276
2017-06-20T14:46:05.062Z,9340
2017-06-20T14:47:07.106Z,9656
2017-06-20T14:48:08.889Z,9808
2017-06-20T14:49:10.634Z,9780
2017-06-20T14:50:12.375Z,9948
2017-06-20T14:51:14.128Z,10120
2017-06-20T14:52:15.908Z,10172
2017-06-20T14:53:17.612Z,9920
2017-06-20T14:54:19.463Z,10236
2017-06-20T14:55:21.394Z,10244
2017-06-20T14:56:27.765Z,10272
2017-06-20T14:57:29.659Z,10080
2017-06-20T14:58:31.862Z,9816
2017-06-20T14:59:34.423Z,9592
2017-06-20T15:00:36.341Z,9500
2017-06-20T15:01:38.157Z,9596
2017-06-20T15:02:39.991Z,9628
2017-06-20T15:03:41.689Z,9700
2017-06-20T15:04:43.492Z,9460
2017-06-20T15:05:45.273Z,9352
2017-06-20T15:06:47.292Z,9292
2017-06-20T15:07:49.111Z,9244
2017-06-20T15:08:50.902Z,9120
2017-06-20T15:09:52.716Z,9048
2017-06-20T15:10:54.408Z,8920
2017-06-20T15:11:56.091Z,8880
2017-06-20T15:12:58.954Z,8700
2017-06-20T15:14:00.735Z,8552
2017-06-20T15:15:02.510Z,8500
2017-06-20T15:16:04.351Z,8520
2017-06-20T15:17:06.108Z,8552
2017-06-20T15:18:07.929Z,8608
2017-06-20T15:19:09.710Z,8756
2017-06-20T15:20:11.446Z,8900
2017-06-20T15:21:13.203Z,9032
2017-06-20T15:22:15.080Z,9188
2017-06-20T15:23:16.763Z,9348
2017-06-20T15:24:18.568Z,9496